Time;durP1;ratioP1;P1;durP2;ratioP2;P2;SDS_P1;SDS_P2;PMS_P1;PMS_P2;Temp;Humidity;BMP_temperature;BMP_pressure;BME280_temperature;BME280_humidity;BME280_pressure;Samples;Min_cycle;Max_cycle;Signal;HPM_P1;HPM_P2
2022/12/07 00:02:59;;;;;;;11.90;7.30;;;;;;;4.11;84.56;99488.25;126640;1274;98090;-74
2022/12/07 00:06:03;;;;;;;9.60;6.20;;;;;;;4.07;84.58;99484.25;126618;1280;99141;-74
2022/12/07 00:09:07;;;;;;;15.70;6.90;;;;;;;4.06;84.73;99479.86;126592;1288;98002;-74
2022/12/07 00:12:10;;;;;;;10.30;5.40;;;;;;;4.06;84.71;99477.27;126733;1281;98026;-74
2022/12/07 00:15:13;;;;;;;8.60;4.90;;;;;;;4.07;84.74;99477.15;126646;1282;98058;-72
2022/12/07 00:18:15;;;;;;;9.30;5.80;;;;;;;4.12;84.84;99476.59;126612;1286;99096;-74
2022/12/07 00:21:21;;;;;;;10.40;6.40;;;;;;;4.18;84.66;99474.27;126656;1281;98116;-73
2022/12/07 00:24:24;;;;;;;12.80;6.80;;;;;;;4.21;84.53;99472.78;126683;1282;99186;-73
2022/12/07 00:27:28;;;;;;;11.80;6.80;;;;;;;4.20;84.49;99472.34;126732;1278;98933;-72
2022/12/07 00:30:31;;;;;;;10.10;6.40;;;;;;;4.17;84.47;99471.04;126486;1282;98074;-72
2022/12/07 00:33:34;;;;;;;11.40;7.00;;;;;;;4.16;84.44;99475.35;126571;1288;98002;-73
2022/12/07 00:36:37;;;;;;;11.50;6.50;;;;;;;4.17;84.49;99472.86;126590;1287;99152;-72
2022/12/07 00:39:40;;;;;;;10.00;6.60;;;;;;;4.15;84.41;99478.08;126633;1282;97991;-74
2022/12/07 00:42:43;;;;;;;9.40;5.80;;;;;;;4.12;84.43;99479.37;126727;1289;99164;-74
2022/12/07 00:45:45;;;;;;;8.20;5.10;;;;;;;4.13;84.30;99481.93;126707;1284;99142;-73
2022/12/07 00:48:51;;;;;;;8.90;6.00;;;;;;;4.16;84.42;99482.77;126635;1285;98841;-74
2022/12/07 00:51:53;;;;;;;12.30;6.90;;;;;;;4.19;84.34;99482.63;126740;1281;98441;-74
2022/12/07 00:54:56;;;;;;;11.70;7.10;;;;;;;4.20;84.23;99481.85;126636;1290;98118;-75
2022/12/07 00:57:59;;;;;;;10.70;6.90;;;;;;;4.17;84.10;99479.17;126599;1280;99043;-73
2022/12/07 01:01:03;;;;;;;11.60;6.90;;;;;;;4.12;84.08;99478.53;126585;1285;99141;-73
2022/12/07 01:04:07;;;;;;;9.90;7.10;;;;;;;4.09;84.07;99474.34;126668;1285;99225;-72
2022/12/07 01:07:10;;;;;;;13.30;7.90;;;;;;;4.05;84.07;99476.45;126639;1288;98071;-72
2022/12/07 01:10:13;;;;;;;11.00;7.20;;;;;;;3.99;84.09;99474.57;126559;1287;99139;-73
2022/12/07 01:13:16;;;;;;;11.70;7.60;;;;;;;3.93;84.15;99473.05;126555;1285;99125;-74
2022/12/07 01:16:20;;;;;;;11.80;7.10;;;;;;;3.91;84.18;99470.45;126589;1293;99133;-72
2022/12/07 01:19:23;;;;;;;11.20;7.00;;;;;;;3.93;84.18;99467.81;126644;1277;98058;-72
2022/12/07 01:22:26;;;;;;;16.70;8.60;;;;;;;3.97;84.19;99468.36;126663;1277;99154;-74
2022/12/07 01:25:29;;;;;;;13.60;7.80;;;;;;;3.99;84.18;99468.73;126600;1278;98005;-72
2022/12/07 01:28:32;;;;;;;13.50;7.70;;;;;;;3.99;83.96;99465.38;126679;1282;99183;-74
2022/12/07 01:31:35;;;;;;;13.20;8.40;;;;;;;3.96;84.05;99461.02;126746;1277;99126;-72
2022/12/07 01:34:38;;;;;;;15.80;8.70;;;;;;;3.94;84.01;99460.66;126563;1293;98409;-72
2022/12/07 01:37:41;;;;;;;14.80;8.40;;;;;;;3.88;83.81;99460.81;126571;1294;99140;-72
2022/12/07 01:40:44;;;;;;;15.00;8.50;;;;;;;3.83;83.92;99457.94;126638;1279;98011;-73
2022/12/07 01:44:12;;;;;;;15.80;8.30;;;;;;;3.79;83.91;99452.14;126786;1277;98018;-74
2022/12/07 01:47:15;;;;;;;13.40;7.70;;;;;;;3.77;84.07;99451.52;126720;1292;99161;-74
2022/12/07 01:50:18;;;;;;;15.20;8.40;;;;;;;3.82;84.03;99452.89;126570;1286;98001;-73
2022/12/07 01:53:25;;;;;;;17.40;8.90;;;;;;;3.87;83.88;99447.73;126657;1285;99161;-73
2022/12/07 01:56:29;;;;;;;13.70;8.30;;;;;;;3.86;83.68;99445.83;126786;1286;98080;-73
2022/12/07 01:59:32;;;;;;;17.20;10.40;;;;;;;3.85;83.70;99444.04;126741;1277;99277;-73
2022/12/07 02:02:38;;;;;;;15.50;9.40;;;;;;;3.80;83.61;99440.77;126578;1284;98072;-73
2022/12/07 02:05:43;;;;;;;14.90;9.20;;;;;;;3.73;83.82;99435.14;126594;1285;97987;-73
2022/12/07 02:08:46;;;;;;;13.10;9.00;;;;;;;3.71;83.85;99427.40;126621;1281;97983;-73
2022/12/07 02:11:49;;;;;;;15.60;8.70;;;;;;;3.70;83.70;99424.36;126497;1280;99161;-74
2022/12/07 02:14:53;;;;;;;14.00;8.80;;;;;;;3.69;83.70;99422.52;126724;1285;99017;-74
2022/12/07 02:18:01;;;;;;;12.20;7.90;;;;;;;3.71;83.76;99426.59;126935;1287;99157;-73
2022/12/07 02:21:11;;;;;;;13.80;9.00;;;;;;;3.74;83.97;99426.11;126907;1277;98058;-72
2022/12/07 02:24:38;;;;;;;19.30;10.30;;;;;;;3.79;83.96;99422.20;126576;1288;98842;-72
2022/12/07 02:27:47;;;;;;;14.60;9.00;;;;;;;3.83;83.79;99419.02;126690;1296;97973;-72
2022/12/07 02:30:52;;;;;;;14.60;9.30;;;;;;;3.85;83.70;99419.57;126569;1279;99128;-71
2022/12/07 02:34:04;;;;;;;14.60;9.30;;;;;;;3.85;83.54;99414.11;126624;1289;99129;-72
2022/12/07 02:37:17;;;;;;;14.10;9.10;;;;;;;3.83;83.60;99414.11;126609;1288;98358;-72
2022/12/07 02:40:25;;;;;;;13.90;9.40;;;;;;;3.81;83.75;99414.83;126561;1293;97973;-72
2022/12/07 02:43:31;;;;;;;12.30;8.10;;;;;;;3.78;83.57;99417.70;126649;1287;99055;-72
2022/12/07 02:46:38;;;;;;;13.50;8.70;;;;;;;3.73;83.76;99416.02;126577;1280;99021;-72
2022/12/07 02:49:42;;;;;;;13.40;7.90;;;;;;;3.73;83.81;99410.91;126622;1282;98058;-71
2022/12/07 02:52:45;;;;;;;12.10;8.10;;;;;;;3.77;83.70;99406.55;126607;1285;97992;-70
2022/12/07 02:55:48;;;;;;;12.80;8.50;;;;;;;3.79;83.78;99406.32;126717;1285;99144;-73
2022/12/07 02:59:00;;;;;;;12.70;9.20;;;;;;;3.80;83.50;99402.37;126733;1278;98151;-72
2022/12/07 03:02:17;;;;;;;12.60;8.80;;;;;;;3.76;83.51;99398.33;126605;1293;98077;-73
2022/12/07 03:05:37;;;;;;;13.80;8.30;;;;;;;3.74;83.60;99396.77;126555;1296;98000;-73
2022/12/07 03:08:48;;;;;;;14.20;9.40;;;;;;;3.72;83.52;99394.58;126688;1282;98637;-73
2022/12/07 03:12:00;;;;;;;14.40;9.30;;;;;;;3.67;83.49;99396.48;126810;1286;98113;-74
2022/12/07 03:15:09;;;;;;;13.90;8.80;;;;;;;3.60;83.57;99393.51;126768;1282;98071;-74
2022/12/07 03:18:16;;;;;;;16.10;9.00;;;;;;;3.60;83.63;99397.59;126679;1285;98009;-73
2022/12/07 03:21:23;;;;;;;12.80;7.90;;;;;;;3.60;83.64;99393.88;126726;1288;99112;-74
2022/12/07 03:24:31;;;;;;;16.60;9.60;;;;;;;3.64;83.72;99394.26;126744;1282;99172;-74
2022/12/07 03:27:37;;;;;;;14.30;8.80;;;;;;;3.70;83.60;99393.36;126550;1288;99135;-73
2022/12/07 03:30:46;;;;;;;14.70;9.40;;;;;;;3.77;83.65;99391.89;126568;1287;97998;-73
2022/12/07 03:33:55;;;;;;;17.80;10.20;;;;;;;3.80;83.64;99387.95;126640;1296;99208;-72
2022/12/07 03:37:03;;;;;;;15.90;9.50;;;;;;;3.80;83.43;99390.13;126780;1288;98738;-74
2022/12/07 03:40:13;;;;;;;16.70;9.90;;;;;;;3.79;83.44;99385.63;126622;1288;98001;-72
2022/12/07 03:43:17;;;;;;;14.80;9.40;;;;;;;3.75;83.53;99383.10;126803;1287;98565;-74
2022/12/07 03:46:27;;;;;;;17.90;10.10;;;;;;;3.72;83.48;99377.70;126783;1287;98106;-73
2022/12/07 03:49:36;;;;;;;14.90;9.40;;;;;;;3.71;83.47;99378.02;126634;1282;98120;-74
2022/12/07 03:52:43;;;;;;;22.60;12.00;;;;;;;3.71;83.49;99376.80;126671;1289;99058;-76
2022/12/07 03:55:48;;;;;;;13.00;8.00;;;;;;;3.73;83.63;99377.86;126838;1288;98771;-76
2022/12/07 03:58:53;;;;;;;12.20;7.90;;;;;;;3.77;83.51;99375.91;126946;1277;98072;-75
2022/12/07 04:02:01;;;;;;;14.50;9.00;;;;;;;3.80;83.53;99372.35;127036;1286;98317;-75
2022/12/07 04:05:05;;;;;;;18.80;9.80;;;;;;;3.79;83.26;99374.31;127012;1294;97973;-75
2022/12/07 04:08:08;;;;;;;16.10;9.60;;;;;;;3.80;83.41;99373.20;127286;1284;99057;-76
2022/12/07 04:11:11;;;;;;;13.90;8.80;;;;;;;3.81;83.30;99373.27;126962;1287;98403;-75
2022/12/07 04:14:20;;;;;;;14.20;8.30;;;;;;;3.79;83.29;99371.67;126806;1288;98689;-74
2022/12/07 04:17:23;;;;;;;14.00;8.80;;;;;;;3.78;83.40;99373.75;126644;1280;98008;-74
2022/12/07 04:20:25;;;;;;;11.90;7.70;;;;;;;3.76;83.46;99370.88;126685;1282;98563;-76
2022/12/07 04:23:28;;;;;;;14.20;8.50;;;;;;;3.74;83.30;99369.85;126730;1286;98747;-76
2022/12/07 04:26:31;;;;;;;13.90;7.90;;;;;;;3.72;83.24;99368.09;126725;1281;99172;-76
2022/12/07 04:29:34;;;;;;;11.20;6.90;;;;;;;3.71;83.22;99366.73;126625;1288;99188;-75
2022/12/07 04:32:37;;;;;;;11.10;7.30;;;;;;;3.71;83.25;99365.33;126740;1287;98073;-76
2022/12/07 04:35:39;;;;;;;11.70;7.50;;;;;;;3.72;83.05;99364.17;126526;1271;98077;-76
2022/12/07 04:38:42;;;;;;;12.00;8.20;;;;;;;3.73;83.12;99360.92;126631;1287;99193;-76
2022/12/07 04:41:45;;;;;;;117.40;65.20;;;;;;;3.74;83.08;99361.89;126683;1271;99672;-76
2022/12/07 04:44:48;;;;;;;42.20;28.80;;;;;;;3.75;83.07;99362.17;126673;1280;98095;-75
2022/12/07 04:47:51;;;;;;;19.10;13.50;;;;;;;3.72;83.04;99360.86;126682;1288;98012;-75
2022/12/07 04:50:54;;;;;;;16.90;11.30;;;;;;;3.67;83.05;99355.02;126601;1287;97970;-75
2022/12/07 04:53:57;;;;;;;17.40;12.30;;;;;;;3.64;83.01;99353.33;126621;1289;98708;-75
2022/12/07 04:57:00;;;;;;;14.40;9.60;;;;;;;3.62;83.09;99348.70;126742;1280;99165;-75
2022/12/07 05:00:04;;;;;;;13.50;9.70;;;;;;;3.61;83.07;99346.02;126849;1284;98950;-75
2022/12/07 05:03:07;;;;;;;11.70;8.50;;;;;;;3.58;83.13;99341.45;126754;1277;98022;-75
2022/12/07 05:06:11;;;;;;;11.00;7.80;;;;;;;3.61;83.13;99341.04;126820;1281;99158;-75
2022/12/07 05:09:14;;;;;;;9.50;7.20;;;;;;;3.66;83.05;99341.17;126698;1286;99144;-75
2022/12/07 05:12:16;;;;;;;10.10;7.10;;;;;;;3.68;83.04;99337.24;126712;1274;98206;-75
2022/12/07 05:15:19;;;;;;;12.20;9.60;;;;;;;3.69;83.04;99336.48;126667;1275;98477;-75
2022/12/07 05:18:22;;;;;;;12.80;9.40;;;;;;;3.67;82.84;99334.17;126559;1282;99174;-74
2022/12/07 05:21:25;;;;;;;14.70;9.30;;;;;;;3.64;82.79;99334.98;126648;1288;98175;-73
2022/12/07 05:24:28;;;;;;;33.70;21.50;;;;;;;3.62;82.86;99335.17;126708;1279;99206;-74
2022/12/07 05:27:31;;;;;;;42.90;26.70;;;;;;;3.58;82.85;99336.71;126749;1287;99145;-75
2022/12/07 05:30:34;;;;;;;64.30;35.70;;;;;;;3.53;83.02;99340.81;126595;1280;99186;-74
2022/12/07 05:33:37;;;;;;;71.40;44.30;;;;;;;3.51;82.93;99335.55;126609;1287;98617;-75
2022/12/07 05:36:40;;;;;;;13.90;9.50;;;;;;;3.49;82.83;99334.84;126579;1286;98668;-75
2022/12/07 05:39:42;;;;;;;12.10;7.60;;;;;;;3.50;83.07;99335.44;126589;1301;97977;-76
2022/12/07 05:42:45;;;;;;;12.80;7.90;;;;;;;3.54;82.92;99334.77;126698;1296;98774;-75
2022/12/07 05:45:48;;;;;;;7.70;5.50;;;;;;;3.53;82.88;99336.25;126675;1281;99182;-76
2022/12/07 05:48:51;;;;;;;7.10;4.80;;;;;;;3.51;82.99;99338.20;126599;1281;98019;-76
2022/12/07 05:51:54;;;;;;;6.30;5.00;;;;;;;3.51;82.85;99341.55;126627;1281;99586;-76
2022/12/07 05:54:57;;;;;;;9.00;5.80;;;;;;;3.51;82.92;99341.71;126656;1288;99162;-76
2022/12/07 06:01:23;;;;;;;6.10;4.80;;;;;;;3.45;82.89;99342.91;126503;1287;97998;-74
2022/12/07 06:04:28;;;;;;;5.80;4.30;;;;;;;3.42;82.85;99340.91;126575;1288;99176;-75
2022/12/07 06:07:30;;;;;;;21.60;13.00;;;;;;;3.41;83.10;99344.48;126640;1288;98535;-75
2022/12/07 06:10:33;;;;;;;9.50;7.20;;;;;;;3.42;83.08;99341.77;126723;1284;99125;-75
2022/12/07 06:13:36;;;;;;;9.00;6.40;;;;;;;3.46;83.05;99343.37;126742;1280;98003;-74
2022/12/07 06:16:39;;;;;;;10.10;6.70;;;;;;;3.48;83.07;99340.36;127701;1280;98997;-73
2022/12/07 06:19:42;;;;;;;11.60;7.80;;;;;;;3.49;83.02;99339.09;126840;1282;98015;-76
2022/12/07 06:22:45;;;;;;;10.10;5.60;;;;;;;3.50;83.08;99342.34;126639;1277;98076;-76
2022/12/07 06:25:48;;;;;;;24.50;16.90;;;;;;;3.47;83.06;99341.58;126681;1287;98083;-76
2022/12/07 06:28:50;;;;;;;45.50;29.20;;;;;;;3.44;83.05;99341.95;126702;1274;98001;-75
2022/12/07 06:31:53;;;;;;;49.40;31.00;;;;;;;3.42;83.20;99341.79;126569;1280;99144;-73
2022/12/07 06:34:56;;;;;;;23.50;13.90;;;;;;;3.38;83.25;99345.10;126516;1280;98029;-73
2022/12/07 06:37:59;;;;;;;35.60;22.70;;;;;;;3.33;83.42;99346.19;126677;1280;98695;-74
2022/12/07 06:41:02;;;;;;;21.20;14.50;;;;;;;3.30;83.49;99349.77;126860;1280;99166;-75
2022/12/07 06:44:06;;;;;;;43.70;28.40;;;;;;;3.32;83.60;99354.94;126996;1281;97979;-74
2022/12/07 06:47:09;;;;;;;41.90;25.90;;;;;;;3.36;83.71;99352.11;126856;1280;97987;-75
2022/12/07 06:50:12;;;;;;;62.50;37.10;;;;;;;3.37;83.85;99350.09;126777;1274;98754;-74
2022/12/07 06:53:15;;;;;;;21.50;13.20;;;;;;;3.37;83.68;99346.98;126872;1272;98439;-75
2022/12/07 06:56:17;;;;;;;24.40;13.90;;;;;;;3.30;83.86;99343.31;127023;1281;98748;-75
2022/12/07 06:59:20;;;;;;;22.00;12.10;;;;;;;3.23;83.99;99347.08;126965;1282;98057;-74
2022/12/07 07:02:23;;;;;;;15.60;10.20;;;;;;;3.19;84.19;99348.83;126869;1280;98123;-73
2022/12/07 07:05:26;;;;;;;11.00;7.00;;;;;;;3.23;84.25;99345.29;126862;1273;99252;-74
2022/12/07 07:08:29;;;;;;;16.60;10.90;;;;;;;3.30;84.19;99349.77;126842;1281;97986;-73
2022/12/07 07:11:31;;;;;;;14.50;9.30;;;;;;;3.38;84.09;99347.23;126888;1280;98643;-74
2022/12/07 07:14:34;;;;;;;24.60;12.90;;;;;;;3.39;84.23;99347.27;126993;1277;98754;-71
2022/12/07 07:17:37;;;;;;;18.70;11.70;;;;;;;3.37;84.10;99351.48;126838;1280;98064;-72
2022/12/07 07:20:40;;;;;;;29.00;17.60;;;;;;;3.37;84.19;99345.77;126790;1274;99032;-71
2022/12/07 07:23:43;;;;;;;29.40;16.50;;;;;;;3.30;84.14;99342.05;126571;1277;111191;-71
2022/12/07 07:26:45;;;;;;;605.70;233.60;;;;;;;3.21;84.38;99341.58;126684;1277;99099;-71
2022/12/07 07:29:48;;;;;;;156.60;42.90;;;;;;;3.14;84.64;99345.30;126790;1284;99647;-68
2022/12/07 07:32:51;;;;;;;20.70;11.60;;;;;;;3.11;84.80;99348.95;126441;1287;98379;-71
2022/12/07 07:35:54;;;;;;;24.40;14.70;;;;;;;3.11;84.96;99351.94;126546;1279;99194;-70
2022/12/07 07:38:57;;;;;;;22.40;12.20;;;;;;;3.15;85.11;99353.49;126621;1288;98122;-71
2022/12/07 07:41:59;;;;;;;20.50;12.20;;;;;;;3.13;85.07;99354.52;126569;1281;97980;-72
2022/12/07 07:45:04;;;;;;;21.90;13.30;;;;;;;3.09;85.01;99356.48;126568;1271;98879;-73
2022/12/07 07:48:07;;;;;;;17.80;10.60;;;;;;;3.07;85.09;99360.02;126638;1288;111191;-72
2022/12/07 07:51:10;;;;;;;25.10;14.80;;;;;;;3.06;85.14;99368.69;127248;1281;111314;-72
2022/12/07 07:54:13;;;;;;;74.50;31.00;;;;;;;3.06;85.21;99367.65;126930;1281;98020;-71
2022/12/07 07:57:17;;;;;;;77.20;42.00;;;;;;;3.13;85.12;99367.90;126796;1280;98002;-72
2022/12/07 08:00:21;;;;;;;21.20;11.90;;;;;;;3.11;85.01;99370.36;126748;1289;109299;-70
2022/12/07 08:03:24;;;;;;;18.80;11.10;;;;;;;3.08;85.07;99368.84;126712;1286;111080;-74
2022/12/07 08:06:27;;;;;;;18.50;10.40;;;;;;;3.08;85.06;99373.08;126785;1280;97997;-71
2022/12/07 08:09:30;;;;;;;18.80;11.10;;;;;;;3.08;85.06;99381.52;126687;1288;98660;-73
2022/12/07 08:12:37;;;;;;;17.60;10.00;;;;;;;3.08;84.99;99384.79;126570;1273;98641;-72
2022/12/07 08:15:41;;;;;;;18.40;10.90;;;;;;;3.18;85.02;99382.63;126885;1299;111010;-72
2022/12/07 08:18:44;;;;;;;17.40;11.60;;;;;;;3.34;84.96;99383.59;126619;1288;111207;-70
2022/12/07 08:21:47;;;;;;;21.60;13.20;;;;;;;3.46;84.63;99383.48;126877;1274;98060;-72
2022/12/07 08:24:50;;;;;;;99.40;59.30;;;;;;;3.48;84.79;99387.47;126937;1281;111091;-72
2022/12/07 08:27:54;;;;;;;66.70;42.70;;;;;;;3.59;84.54;99383.79;126955;1280;97996;-76
2022/12/07 08:31:00;;;;;;;20.50;12.60;;;;;;;3.64;84.40;99385.12;126792;1280;111144;-76
2022/12/07 08:34:03;;;;;;;16.60;10.60;;;;;;;3.64;84.43;99388.80;127001;1280;111206;-71
2022/12/07 08:37:06;;;;;;;19.30;12.00;;;;;;;3.69;84.39;99390.32;126949;1280;98170;-71
2022/12/07 08:40:14;;;;;;;20.50;10.50;;;;;;;3.77;84.37;99388.58;126788;1280;98349;-72
2022/12/07 08:43:17;;;;;;;18.10;11.10;;;;;;;3.86;84.38;99388.88;126789;1281;111102;-71
2022/12/07 08:46:24;;;;;;;16.00;10.00;;;;;;;3.92;83.96;99387.98;126804;1281;98011;-74
2022/12/07 08:49:31;;;;;;;14.20;9.30;;;;;;;3.94;83.92;99388.02;126652;1287;110916;-73
2022/12/07 08:52:36;;;;;;;14.50;9.30;;;;;;;3.96;84.05;99389.27;126623;1280;111808;-71
2022/12/07 08:55:39;;;;;;;15.30;9.90;;;;;;;3.96;83.87;99387.67;126695;1295;111119;-71
2022/12/07 08:58:42;;;;;;;15.50;9.50;;;;;;;3.94;84.02;99384.48;126587;1286;98071;-72
2022/12/07 09:01:45;;;;;;;15.40;10.20;;;;;;;3.94;83.88;99379.52;126838;1280;110839;-72
2022/12/07 09:04:48;;;;;;;35.10;20.80;;;;;;;3.88;83.96;99377.91;126586;1280;99071;-72
2022/12/07 09:07:55;;;;;;;26.20;11.50;;;;;;;3.89;84.00;99376.31;126561;1288;98797;-72
2022/12/07 09:10:58;;;;;;;39.80;22.20;;;;;;;3.89;83.81;99371.70;126644;1279;110911;-71
2022/12/07 09:14:00;;;;;;;21.60;11.90;;;;;;;3.90;83.62;99367.90;126508;1288;98067;-72
2022/12/07 09:17:08;;;;;;;15.30;10.20;;;;;;;3.95;83.78;99357.86;126775;1278;98068;-73
2022/12/07 09:20:12;;;;;;;17.00;11.40;;;;;;;4.01;83.61;99358.39;126835;1274;111216;-70
2022/12/07 09:23:15;;;;;;;26.00;13.50;;;;;;;4.03;83.76;99359.64;126620;1281;111077;-70
2022/12/07 09:26:18;;;;;;;18.40;11.40;;;;;;;4.11;83.88;99356.38;126678;1281;98766;-70
2022/12/07 09:29:21;;;;;;;13.80;8.70;;;;;;;4.17;83.86;99355.93;126587;1295;99055;-73
2022/12/07 09:32:24;;;;;;;15.90;9.10;;;;;;;4.21;83.70;99349.80;126799;1272;98511;-72
2022/12/07 09:35:27;;;;;;;14.70;9.00;;;;;;;4.24;83.64;99345.98;126632;1272;99578;-72
2022/12/07 09:38:32;;;;;;;98.50;59.30;;;;;;;4.24;83.48;99348.77;126674;1278;98007;-72
2022/12/07 09:41:39;;;;;;;34.80;23.80;;;;;;;4.26;83.51;99344.90;126886;1274;112191;-73
2022/12/07 09:44:42;;;;;;;25.80;16.00;;;;;;;4.36;83.73;99350.23;126758;1279;110314;-73
2022/12/07 09:47:45;;;;;;;51.40;33.60;;;;;;;4.41;83.33;99349.38;126769;1281;99163;-73
2022/12/07 09:50:49;;;;;;;41.00;24.20;;;;;;;4.40;83.13;99353.21;126733;1281;98127;-70
2022/12/07 09:53:54;;;;;;;26.70;17.50;;;;;;;4.37;83.27;99354.36;126682;1282;111219;-70
2022/12/07 09:56:57;;;;;;;28.00;18.20;;;;;;;4.35;83.08;99351.34;126479;1288;111291;-71
2022/12/07 10:00:04;;;;;;;27.10;19.20;;;;;;;4.30;83.27;99354.55;126627;1278;99141;-74
2022/12/07 10:03:11;;;;;;;19.70;12.30;;;;;;;4.28;83.33;99355.45;126695;1280;111251;-75
2022/12/07 10:06:14;;;;;;;26.10;13.90;;;;;;;4.26;83.22;99353.36;126607;1287;110774;-75
2022/12/07 10:09:19;;;;;;;20.50;14.10;;;;;;;4.24;83.10;99346.70;126729;1278;98742;-75
2022/12/07 10:12:22;;;;;;;18.00;13.40;;;;;;;4.22;82.99;99347.73;126772;1279;109488;-75
2022/12/07 10:15:42;;;;;;;28.80;19.30;;;;;;;4.24;83.19;99345.09;127954;1288;98317;-78
2022/12/07 10:18:45;;;;;;;55.50;21.50;;;;;;;4.32;83.13;99340.39;126589;1289;110931;-77
2022/12/07 10:22:02;;;;;;;29.20;16.30;;;;;;;4.37;83.09;99337.12;126718;1274;98077;-79
2022/12/07 10:25:18;;;;;;;13.50;8.60;;;;;;;4.35;82.98;99336.27;126719;1288;111220;-79
2022/12/07 10:28:21;;;;;;;64.20;27.20;;;;;;;4.30;83.00;99333.06;126712;1281;110482;-77
2022/12/07 10:31:24;;;;;;;22.90;13.10;;;;;;;4.32;83.09;99332.10;126676;1280;111256;-75
2022/12/07 10:34:29;;;;;;;33.20;23.50;;;;;;;4.34;83.18;99330.68;126673;1280;98000;-74
2022/12/07 10:37:41;;;;;;;21.70;14.40;;;;;;;4.29;83.14;99331.56;126550;1293;110949;-76
2022/12/07 10:40:44;;;;;;;75.70;41.70;;;;;;;4.27;83.11;99328.84;126611;1280;111342;-78
2022/12/07 10:43:56;;;;;;;14.60;9.80;;;;;;;4.26;83.19;99330.64;126723;1288;97994;-76
2022/12/07 10:47:14;;;;;;;22.80;14.90;;;;;;;4.33;83.16;99330.96;126819;1274;111401;-77
2022/12/07 10:50:31;;;;;;;15.80;10.30;;;;;;;4.40;83.28;99325.41;126718;1280;111203;-76
2022/12/07 10:53:58;;;;;;;30.20;20.10;;;;;;;4.46;83.17;99330.62;126698;1288;111243;-76
2022/12/07 10:57:23;;;;;;;31.00;19.70;;;;;;;4.54;83.13;99327.12;126878;1296;110287;-75
2022/12/07 11:00:31;;;;;;;22.20;13.90;;;;;;;4.63;83.26;99323.16;126783;1288;111059;-76
2022/12/07 11:03:46;;;;;;;30.70;19.80;;;;;;;4.65;83.23;99312.90;126946;1274;112105;-75
2022/12/07 11:06:54;;;;;;;47.00;27.90;;;;;;;4.67;83.11;99319.04;126773;1281;109521;-75
2022/12/07 11:10:11;;;;;;;26.80;16.30;;;;;;;4.64;82.85;99316.36;126715;1278;111184;-75
2022/12/07 11:13:25;;;;;;;22.70;13.20;;;;;;;4.57;82.96;99311.73;126856;1288;111174;-75
2022/12/07 11:16:45;;;;;;;22.60;12.70;;;;;;;4.53;82.83;99308.52;126968;1279;110273;-75
2022/12/07 11:20:02;;;;;;;42.30;22.10;;;;;;;4.51;82.68;99309.92;126934;1279;110242;-76
2022/12/07 11:23:18;;;;;;;51.30;28.30;;;;;;;4.50;82.81;99309.67;126942;1277;111214;-72
2022/12/07 11:26:34;;;;;;;16.60;9.20;;;;;;;4.49;82.60;99302.23;126948;1278;111226;-74
2022/12/07 11:29:56;;;;;;;14.90;9.10;;;;;;;4.43;82.38;99301.50;126997;1278;110852;-76
2022/12/07 11:33:15;;;;;;;21.60;14.00;;;;;;;4.35;82.84;99301.72;126590;1281;111231;-75
2022/12/07 11:36:34;;;;;;;37.50;18.60;;;;;;;4.31;82.72;99299.73;126647;1278;111124;-77
2022/12/07 11:39:44;;;;;;;32.80;17.00;;;;;;;4.27;82.56;99294.48;126864;1279;110765;-77
2022/12/07 11:42:53;;;;;;;26.00;14.20;;;;;;;4.22;82.45;99288.83;127079;1280;111156;-75
2022/12/07 11:46:03;;;;;;;52.50;26.20;;;;;;;4.15;82.42;99290.67;126721;1288;111266;-74
2022/12/07 11:49:14;;;;;;;38.10;22.90;;;;;;;4.10;82.51;99289.84;126579;1288;111033;-73
2022/12/07 11:52:26;;;;;;;51.10;31.40;;;;;;;4.06;82.51;99290.69;126586;1286;111129;-74
2022/12/07 11:55:40;;;;;;;19.40;13.70;;;;;;;4.06;82.46;99290.02;126594;1277;111098;-75
2022/12/07 11:58:55;;;;;;;13.10;10.50;;;;;;;4.07;82.35;99286.23;126632;1288;111307;-75
2022/12/07 12:02:09;;;;;;;12.20;8.40;;;;;;;4.06;82.20;99284.73;126596;1288;111269;-76
2022/12/07 12:05:18;;;;;;;10.80;8.60;;;;;;;4.04;82.19;99284.25;126655;1280;110047;-75
2022/12/07 12:08:27;;;;;;;10.10;7.90;;;;;;;4.01;82.27;99281.08;126637;1288;109795;-73
2022/12/07 12:11:47;;;;;;;10.20;7.80;;;;;;;4.00;82.31;99278.94;126754;1274;110264;-72
2022/12/07 12:15:03;;;;;;;19.10;9.80;;;;;;;3.95;82.27;99275.35;126747;1278;110961;-74
2022/12/07 12:18:37;;;;;;;11.80;8.10;;;;;;;3.91;82.14;99267.91;126500;1294;110832;-74
2022/12/07 12:21:41;;;;;;;10.60;7.50;;;;;;;3.90;82.17;99261.66;126682;1281;110901;-73
2022/12/07 12:24:47;;;;;;;11.60;7.60;;;;;;;3.97;82.23;99264.40;126638;1278;110840;-74
2022/12/07 12:27:52;;;;;;;72.80;35.00;;;;;;;4.04;81.97;99270.11;126635;1281;111114;-75
2022/12/07 12:31:14;;;;;;;24.90;12.50;;;;;;;4.04;81.50;99268.95;126612;1281;111401;-75
2022/12/07 12:34:41;;;;;;;13.10;9.00;;;;;;;4.05;81.24;99265.67;126580;1281;111182;-73
2022/12/07 12:37:46;;;;;;;12.60;8.80;;;;;;;4.05;81.25;99262.50;126661;1286;111165;-74
2022/12/07 12:40:49;;;;;;;14.00;9.30;;;;;;;4.04;81.20;99254.78;126835;1288;111271;-76
2022/12/07 12:43:53;;;;;;;12.90;8.40;;;;;;;3.99;81.04;99257.35;126836;1288;99132;-77
2022/12/07 12:46:57;;;;;;;12.60;9.00;;;;;;;3.94;81.09;99256.73;126695;1286;110855;-74
2022/12/07 12:50:18;;;;;;;12.00;9.20;;;;;;;3.88;80.75;99256.77;126736;1280;110759;-74
2022/12/07 12:53:25;;;;;;;12.40;9.00;;;;;;;3.77;80.89;99250.85;126844;1288;110925;-75
2022/12/07 12:56:39;;;;;;;12.00;9.10;;;;;;;3.72;80.96;99248.42;126619;1281;111671;-71
2022/12/07 12:59:55;;;;;;;11.40;8.50;;;;;;;3.70;81.07;99246.71;126470;1281;111411;-72
2022/12/07 13:03:00;;;;;;;18.60;10.60;;;;;;;3.70;80.91;99244.42;126697;1288;111222;-70
2022/12/07 13:06:32;;;;;;;14.20;8.30;;;;;;;3.71;80.82;99247.11;126593;1286;111150;-73
2022/12/07 13:09:36;;;;;;;12.50;7.90;;;;;;;3.78;80.77;99242.16;126641;1288;111182;-72
2022/12/07 13:12:41;;;;;;;12.00;8.00;;;;;;;3.90;80.73;99242.46;126879;1280;110157;-71
2022/12/07 13:15:46;;;;;;;16.30;9.40;;;;;;;3.95;80.11;99240.45;126971;1280;110962;-71
2022/12/07 13:18:48;;;;;;;14.10;9.10;;;;;;;3.92;79.96;99238.09;126707;1286;111108;-72
2022/12/07 13:21:51;;;;;;;12.50;8.70;;;;;;;3.86;80.29;99240.73;126758;1280;98035;-72
2022/12/07 13:24:57;;;;;;;14.10;9.50;;;;;;;3.83;80.50;99234.11;126777;1281;106606;-74
2022/12/07 13:28:09;;;;;;;10.70;7.80;;;;;;;3.84;80.53;99235.42;126986;1286;109988;-72
2022/12/07 13:31:19;;;;;;;10.90;8.20;;;;;;;3.83;80.55;99233.40;126955;1288;110016;-74
2022/12/07 13:34:31;;;;;;;13.60;8.60;;;;;;;3.83;80.62;99236.45;126670;1281;110231;-72
2022/12/07 13:37:34;;;;;;;12.50;8.50;;;;;;;3.79;80.63;99233.77;126822;1280;112451;-73
2022/12/07 13:40:37;;;;;;;12.70;8.80;;;;;;;3.73;80.68;99238.67;126673;1288;110922;-72
2022/12/07 13:43:51;;;;;;;13.20;8.00;;;;;;;3.68;80.78;99240.02;126673;1287;98061;-73
2022/12/07 13:47:04;;;;;;;10.40;6.90;;;;;;;3.69;80.99;99243.08;126760;1281;111035;-74
2022/12/07 13:50:21;;;;;;;;;;;;;;;3.75;81.01;99242.75;126668;1288;109733;-71
2022/12/07 13:53:27;;;;;;;10.90;7.50;;;;;;;3.79;81.07;99245.58;126639;1280;111037;-73
2022/12/07 13:56:34;;;;;;;12.00;8.40;;;;;;;3.81;81.07;99237.44;126812;1281;111152;-73
2022/12/07 13:59:38;;;;;;;13.80;8.60;;;;;;;3.81;80.97;99231.30;126760;1288;111261;-72
2022/12/07 14:02:56;;;;;;;13.90;9.30;;;;;;;3.79;80.99;99233.11;126801;1288;111113;-73
2022/12/07 14:06:26;;;;;;;15.10;9.20;;;;;;;3.74;81.02;99229.48;127030;1278;111172;-74
2022/12/07 14:09:30;;;;;;;14.70;9.50;;;;;;;3.71;81.30;99231.84;127004;1288;111100;-74
2022/12/07 14:12:36;;;;;;;14.40;9.20;;;;;;;3.68;81.03;99231.91;126730;1278;111044;-73
2022/12/07 14:15:39;;;;;;;13.00;8.90;;;;;;;3.64;81.23;99234.92;126644;1278;111062;-71
2022/12/07 14:18:41;;;;;;;13.30;9.20;;;;;;;3.61;81.21;99228.99;126635;1295;98669;-75
2022/12/07 14:21:44;;;;;;;13.50;7.90;;;;;;;3.63;81.28;99227.48;126634;1281;98003;-74
2022/12/07 14:24:47;;;;;;;14.40;9.20;;;;;;;3.65;81.36;99228.52;126664;1288;98000;-73